Terminal Aerodrome Forecast
Issued by NWS Billings, MT

Home | Current Version | Previous Version | Text Only | Print | Product List | Glossary Off
Versions: 1 2 3 4 5 6 7 8 9 10 11 12 13 14 15 16 17 18 19 20 21 22 23 24 25 26

000
FTUS45 KBYZ 022104 AAA
TAFMLS
TAF AMD
KMLS 022104Z 0221/0318 22012KT P6SM VCTS FEW120CB SCT200
      TEMPO 0221/0222 VRB20G40KT 3SM -TSRA BKN100CB
     FM030200 VRB05KT P6SM SCT120 SCT200
     FM030800 34012KT P6SM SCT100 BKN200=

USA.gov is the U.S. government's official web portal to all federal, state and local government web resources and services.